ZJHKZUCK

Guest
Details From ZJHK - Meilan
To ZUCK - Jiangbei
Flight Number -
Tags Generated
Created
Modified
Stats Distance 623 nm / 1,153 km
Max Altitude 0 ft / 0 m
Waypoints 3
Social Downloads 1
Likes 0
Share VATSIM

Download

Looking for another format? Having issues loading an existing format? Contact us
Advertisement - Login to hide

Notes

Generated

Route

ZJHK WX ZUCK

ID Type Via Altitude Latitude Longitude Leg Dist Tot Dist Heading (true) Name
O ZJHK APT - 0 ft / 0 m 19.93477˚ 110.43803˚ - 0 nm - -
WX NDB - 0 ft / 0 m 29.51500˚ 106.66000˚ 611 nm 611 nm 341° / 339° CHANGSHENGQIAO NDB
O ZUCK APT - 0 ft / 0 m 29.70539˚ 106.63686˚ 11 nm 622 nm 354° / 354° -

Altitude Profile

Advertisement - Login to hide

Weather


0- 5 10 15 20 25 30 35+ Temperature / ° C

Clouds and Precipitation
Forecast for 2017-12-17 18:00 UTC. Updated an hour ago

Ground ~20,000 ft ~40,000 ft Winds

ZJHK

Details ICAO ZJHK (HAK)
Name MEILAN
Region China
Timezone Asia/Chongqing (UTC+8.0)
Stats Elevation 75 ft / 23 m (AMSL)
Location 19.934836° 110.455264°
Runways 1
Magnetic Variation 1.940° W

METAR

ZJHK 171800Z 34005MPS 9999 BKN046 14/09 Q1025 NOSIG

Decode

TAF

Not found

Departure Runways

ID Width Length Bearing (true) Bearing (mag) Surface Threshold Offset Overrun Length
09 148 ft / 45 m 11,822 ft / 3,603 m 89.76° 91.70° Concrete 0 ft / 0 m 197 ft / 60 m
27 148 ft / 45 m 11,822 ft / 3,603 m 269.78° 271.72° Concrete 0 ft / 0 m 197 ft / 60 m

ZUCK

Details ICAO ZUCK (CKG)
Name JIANGBEI
Region China
Timezone Asia/Chongqing (UTC+8.0)
Stats Elevation 1,365 ft / 416 m (AMSL)
Location 29.719217° 106.641677°
Runways 1
Magnetic Variation 2.488° W

METAR

ZUCK 171800Z 00000MPS 5000 BR FEW014 07/06 Q1034 NOSIG

Decode

TAF

Not found

Destination Runways

ID Width Length Bearing (true) Bearing (mag) Surface Threshold Offset Overrun Length
02 148 ft / 45 m 10,543 ft / 3,213 m 16.82° 19.31° Concrete 0 ft / 0 m 197 ft / 60 m
20 148 ft / 45 m 10,543 ft / 3,213 m 196.82° 199.31° Concrete 0 ft / 0 m 197 ft / 60 m

Approach Navaids

Runway Type Ident Frequency Range Bearing (true) Bearing (mag) Slope Elevation
02 Localiser IWX 109.70 MHz 18 nm / 33 km 16.82° 19.31° - 1,365 ft / 416 m (AMSL)
02 Glidescope IWX 109.70 MHz 10 nm / 19 km 16.82° 19.31° 3.00° 1,365 ft / 416 m (AMSL)
02 DME IWX 109.70 MHz 18 nm / 33 km - - - 1,365 ft / 416 m (AMSL)
20 Localiser IOS 108.10 MHz 18 nm / 33 km 196.82° 199.31° - 1,365 ft / 416 m (AMSL)
20 Glidescope IOS 108.10 MHz 10 nm / 19 km 196.82° 199.31° 3.00° 1,365 ft / 416 m (AMSL)